createdAt,value
2023-06-07T00:02:33.057Z,101341.58
2023-06-07T00:05:10.856Z,101334.94
2023-06-07T00:07:40.009Z,101335.42
2023-06-07T00:10:09.708Z,101334.41
2023-06-07T00:12:38.498Z,101334.27
2023-06-07T00:15:09.042Z,101331.95
2023-06-07T00:17:42.594Z,101328.96
2023-06-07T00:20:14.501Z,101328.63
2023-06-07T00:22:43.584Z,101324.95
2023-06-07T00:25:12.337Z,101324.23
2023-06-07T00:27:41.278Z,101325.59
2023-06-07T00:30:10.465Z,101322.77
2023-06-07T00:32:38.930Z,101319.05
2023-06-07T00:35:08.947Z,101315.81
2023-06-07T00:37:37.513Z,101317.99
2023-06-07T00:40:08.184Z,101316.96
2023-06-07T00:42:36.844Z,101316.80
2023-06-07T00:45:06.379Z,101314.67
2023-06-07T00:47:36.910Z,101311.61
2023-06-07T00:50:07.364Z,101315.17
2023-06-07T00:52:37.664Z,101313.80
2023-06-07T00:55:06.922Z,101317.27
2023-06-07T00:57:36.930Z,101312.02
2023-06-07T01:00:11.436Z,101307.21
2023-06-07T01:02:40.976Z,101304.67
2023-06-07T01:05:10.223Z,101304.18
2023-06-07T01:07:39.103Z,101298.26
2023-06-07T01:10:09.548Z,101297.23
2023-06-07T01:12:39.865Z,101298.91
2023-06-07T01:15:09.263Z,101297.54
2023-06-07T01:17:42.701Z,101298.11
2023-06-07T01:20:22.879Z,101296.17
2023-06-07T01:22:59.387Z,101295.68
2023-06-07T01:25:28.350Z,101297.21
2023-06-07T01:27:58.560Z,101295.02
2023-06-07T01:30:33.137Z,101293.02
2023-06-07T01:33:05.770Z,101289.30
2023-06-07T01:35:36.656Z,101289.80
2023-06-07T01:38:06.155Z,101282.27
2023-06-07T01:40:36.478Z,101284.20
2023-06-07T01:43:06.638Z,101282.55
2023-06-07T01:45:35.569Z,101280.05
2023-06-07T01:48:05.042Z,101278.44
2023-06-07T01:50:34.100Z,101281.55
2023-06-07T01:53:02.881Z,101280.30
2023-06-07T01:55:31.986Z,101281.38
2023-06-07T01:58:36.214Z,101286.00
2023-06-07T02:01:27.436Z,101286.12
2023-06-07T02:03:57.291Z,101285.02
2023-06-07T02:06:34.056Z,101283.18
2023-06-07T02:09:11.822Z,101283.50
2023-06-07T02:11:42.352Z,101283.20
2023-06-07T02:14:11.285Z,101282.50
2023-06-07T02:16:41.425Z,101282.98
2023-06-07T02:19:12.700Z,101284.63
2023-06-07T02:21:51.980Z,101286.66
2023-06-07T02:24:21.111Z,101287.44
2023-06-07T02:26:49.759Z,101289.21
2023-06-07T02:29:18.712Z,101284.91
2023-06-07T02:31:51.457Z,101284.83
2023-06-07T02:34:20.494Z,101286.34
2023-06-07T02:36:49.076Z,101281.32
2023-06-07T02:39:17.729Z,101276.14
2023-06-07T02:41:46.875Z,101274.90
2023-06-07T02:44:15.593Z,101277.14
2023-06-07T02:46:44.521Z,101277.64
2023-06-07T02:49:13.607Z,101278.85
2023-06-07T02:51:43.484Z,101276.09
2023-06-07T02:54:12.549Z,101275.48
2023-06-07T02:56:41.414Z,101279.42
2023-06-07T02:59:09.891Z,101284.11
2023-06-07T03:01:41.021Z,101284.36
2023-06-07T03:04:10.160Z,101290.38
2023-06-07T03:06:42.888Z,101291.84
2023-06-07T03:09:26.330Z,101296.94
2023-06-07T03:11:55.473Z,101298.09
2023-06-07T03:14:25.294Z,101301.85
2023-06-07T03:16:54.988Z,101295.74
2023-06-07T03:19:24.046Z,101295.44
2023-06-07T03:21:55.248Z,101292.98
2023-06-07T03:24:25.028Z,101289.14
2023-06-07T03:26:54.449Z,101290.67
2023-06-07T03:29:23.916Z,101291.25
2023-06-07T03:31:53.077Z,101289.96
2023-06-07T03:34:22.190Z,101290.63
2023-06-07T03:36:51.013Z,101291.40
2023-06-07T03:39:19.947Z,101295.81
2023-06-07T03:41:48.936Z,101298.13
2023-06-07T03:44:21.109Z,101303.91
2023-06-07T03:46:49.973Z,101308.36
2023-06-07T03:49:18.665Z,101306.44
2023-06-07T03:51:48.193Z,101310.48
2023-06-07T03:54:17.596Z,101309.19
2023-06-07T03:56:46.498Z,101310.49
2023-06-07T03:59:16.812Z,101310.38
2023-06-07T04:01:45.815Z,101306.45
2023-06-07T04:04:16.369Z,101304.29
2023-06-07T04:06:46.009Z,101305.20
2023-06-07T04:09:17.042Z,101307.37
2023-06-07T04:11:45.986Z,101308.89
2023-06-07T04:14:14.938Z,101301.55
2023-06-07T04:16:44.438Z,101302.16
2023-06-07T04:19:13.986Z,101305.38
2023-06-07T04:21:42.986Z,101304.65
2023-06-07T04:24:14.998Z,101306.02
2023-06-07T04:26:46.341Z,101307.82
2023-06-07T04:29:16.318Z,101304.28
2023-06-07T04:31:45.041Z,101304.11
2023-06-07T04:34:19.057Z,101306.20
2023-06-07T04:36:50.606Z,101304.17
2023-06-07T04:39:22.015Z,101309.42
2023-06-07T04:41:54.595Z,101305.72
2023-06-07T04:44:30.611Z,101304.34
2023-06-07T04:47:13.039Z,101304.67
2023-06-07T04:49:42.323Z,101307.08
2023-06-07T04:52:13.909Z,101311.56
2023-06-07T04:54:48.500Z,101310.49
2023-06-07T04:57:19.478Z,101307.73
2023-06-07T04:59:50.162Z,101313.55
2023-06-07T05:02:25.175Z,101314.55
2023-06-07T05:04:55.023Z,101314.82
2023-06-07T05:07:29.187Z,101312.89
2023-06-07T05:09:58.114Z,101313.52
2023-06-07T05:12:27.026Z,101318.05
2023-06-07T05:14:55.355Z,101323.80
2023-06-07T05:17:25.597Z,101326.37
2023-06-07T05:19:55.591Z,101324.16
2023-06-07T05:22:24.518Z,101318.75
2023-06-07T05:24:53.069Z,101318.45
2023-06-07T05:27:21.726Z,101320.30
2023-06-07T05:29:50.302Z,101320.59
2023-06-07T05:32:19.084Z,101323.48
2023-06-07T05:34:50.295Z,101322.08
2023-06-07T05:37:19.699Z,101321.41
2023-06-07T05:39:49.293Z,101317.23
2023-06-07T05:42:17.779Z,101316.11
2023-06-07T05:44:50.362Z,101312.88
2023-06-07T05:47:26.737Z,101311.31
2023-06-07T05:49:55.513Z,101305.90
2023-06-07T05:52:24.409Z,101308.89
2023-06-07T05:54:55.669Z,101309.75
2023-06-07T05:57:24.455Z,101311.73
2023-06-07T05:59:52.984Z,101312.16
2023-06-07T06:02:22.234Z,101307.39
2023-06-07T06:04:55.252Z,101311.34
2023-06-07T06:07:24.106Z,101310.67
2023-06-07T06:09:52.730Z,101310.29
2023-06-07T06:12:21.684Z,101306.61
2023-06-07T06:14:50.600Z,101307.05
2023-06-07T06:17:19.210Z,101306.69
2023-06-07T06:19:47.844Z,101312.45
2023-06-07T06:22:16.236Z,101312.71
2023-06-07T06:24:45.635Z,101314.70
2023-06-07T06:27:14.323Z,101315.27
2023-06-07T06:29:42.749Z,101307.06
2023-06-07T06:32:11.598Z,101307.32
2023-06-07T06:34:40.522Z,101302.59
2023-06-07T06:37:08.889Z,101303.41
2023-06-07T06:39:37.395Z,101305.04
2023-06-07T06:42:07.147Z,101305.84
2023-06-07T06:44:45.376Z,101308.67
2023-06-07T06:47:14.576Z,101304.04
2023-06-07T06:49:43.174Z,101300.60
2023-06-07T06:52:11.665Z,101297.60
2023-06-07T06:54:40.337Z,101301.77
2023-06-07T06:57:09.677Z,101297.38
2023-06-07T06:59:38.323Z,101298.15
2023-06-07T07:02:07.467Z,101298.97
2023-06-07T07:04:36.669Z,101296.13
2023-06-07T07:07:06.239Z,101296.67
2023-06-07T07:09:35.529Z,101293.63
2023-06-07T07:12:04.627Z,101297.90
2023-06-07T07:14:33.214Z,101295.91
2023-06-07T07:17:02.275Z,101296.62
2023-06-07T07:19:30.898Z,101296.77
2023-06-07T07:21:59.529Z,101290.13
2023-06-07T07:24:28.476Z,101295.60
2023-06-07T07:26:57.634Z,101296.55
2023-06-07T07:29:29.055Z,101295.84
2023-06-07T07:31:58.139Z,101293.40
2023-06-07T07:34:26.586Z,101295.03
2023-06-07T07:36:57.255Z,101288.70
2023-06-07T07:40:07.472Z,101290.48
2023-06-07T07:43:16.493Z,101288.74
2023-06-07T07:46:25.012Z,101289.73
2023-06-07T07:49:35.946Z,101292.54
2023-06-07T07:52:45.473Z,101293.23
2023-06-07T07:55:53.597Z,101291.53
2023-06-07T07:59:02.020Z,101295.96
2023-06-07T08:02:36.044Z,101298.19
2023-06-07T08:05:05.973Z,101300.05
2023-06-07T08:07:34.743Z,101299.83
2023-06-07T08:10:03.446Z,101297.60
2023-06-07T08:12:35.034Z,101290.59
2023-06-07T08:15:04.831Z,101291.48
2023-06-07T08:17:33.836Z,101292.32
2023-06-07T08:20:06.397Z,101291.08
2023-06-07T08:22:39.106Z,101293.52
2023-06-07T08:25:08.570Z,101284.02
2023-06-07T08:27:37.345Z,101286.33
2023-06-07T08:30:07.998Z,101279.13
2023-06-07T08:32:36.960Z,101279.80
2023-06-07T08:35:07.449Z,101279.45
2023-06-07T08:37:36.309Z,101283.95
2023-06-07T08:40:07.387Z,101283.64
2023-06-07T08:42:39.100Z,101277.15
2023-06-07T08:45:08.216Z,101274.99
2023-06-07T08:47:37.583Z,101278.15
2023-06-07T08:50:10.995Z,101276.98
2023-06-07T08:52:42.924Z,101274.92
2023-06-07T08:55:14.747Z,101265.16
2023-06-07T08:57:47.560Z,101267.13
2023-06-07T09:00:16.711Z,101263.08
2023-06-07T09:02:45.956Z,101259.06
2023-06-07T09:05:15.208Z,101252.14
2023-06-07T09:07:43.897Z,101255.81
2023-06-07T09:10:14.648Z,101255.17
2023-06-07T09:12:48.035Z,101259.02
2023-06-07T09:15:22.009Z,101255.64
2023-06-07T09:18:03.767Z,101259.86
2023-06-07T09:20:33.093Z,101256.21
2023-06-07T09:23:10.643Z,101252.25
2023-06-07T09:25:39.655Z,101255.91
2023-06-07T09:28:12.928Z,101250.41
2023-06-07T09:31:07.694Z,101242.90
2023-06-07T09:33:36.918Z,101236.96
2023-06-07T09:36:17.152Z,101233.01
2023-06-07T09:38:46.918Z,101231.95
2023-06-07T09:41:15.279Z,101235.52
2023-06-07T09:43:48.464Z,101239.31
2023-06-07T09:46:18.446Z,101227.10
2023-06-07T09:48:49.668Z,101232.27
2023-06-07T09:51:20.822Z,101232.86
2023-06-07T09:53:58.422Z,101236.64
2023-06-07T09:56:27.241Z,101227.64
2023-06-07T09:59:15.175Z,101229.42
2023-06-07T10:01:47.739Z,101225.60
2023-06-07T10:04:16.733Z,101216.80
2023-06-07T10:06:47.092Z,101218.84
2023-06-07T10:09:19.174Z,101221.40
2023-06-07T10:11:50.881Z,101220.42
2023-06-07T10:14:20.864Z,101226.60
2023-06-07T10:16:56.006Z,101226.98
2023-06-07T10:19:32.996Z,101225.20
2023-06-07T10:22:02.437Z,101218.58
2023-06-07T10:24:37.835Z,101216.23
2023-06-07T10:27:19.245Z,101216.78
2023-06-07T10:30:02.629Z,101217.17
2023-06-07T10:32:35.000Z,101213.14
2023-06-07T10:35:04.476Z,101213.38
2023-06-07T10:37:35.163Z,101214.27
2023-06-07T10:40:11.816Z,101211.81
2023-06-07T10:42:42.288Z,101206.90
2023-06-07T10:45:16.480Z,101212.85
2023-06-07T10:47:46.911Z,101208.00
2023-06-07T10:50:27.846Z,101204.17
2023-06-07T10:52:58.205Z,101203.73
2023-06-07T10:55:34.760Z,101201.80
2023-06-07T10:58:03.106Z,101200.15
2023-06-07T11:00:34.463Z,101200.98
2023-06-07T11:03:06.279Z,101197.41
2023-06-07T11:06:10.125Z,101198.36
2023-06-07T11:08:39.438Z,101190.39
2023-06-07T11:11:42.335Z,101188.11
2023-06-07T11:14:12.996Z,101186.39
2023-06-07T11:16:42.116Z,101183.92
2023-06-07T11:19:14.321Z,101182.40
2023-06-07T11:21:55.676Z,101182.06
2023-06-07T11:24:24.874Z,101178.28
2023-06-07T11:26:53.659Z,101172.48
2023-06-07T11:29:22.856Z,101174.74
2023-06-07T11:32:02.895Z,101172.05
2023-06-07T11:34:32.854Z,101171.26
2023-06-07T11:37:27.832Z,101166.30
2023-06-07T11:40:00.841Z,101168.45
2023-06-07T11:42:30.735Z,101162.23
2023-06-07T11:45:00.038Z,101163.02
2023-06-07T11:47:28.846Z,101158.48
2023-06-07T11:49:57.631Z,101150.09
2023-06-07T11:52:26.615Z,101149.11
2023-06-07T11:54:55.303Z,101145.70
2023-06-07T11:57:24.195Z,101140.45
2023-06-07T11:59:53.907Z,101140.77
2023-06-07T12:02:23.340Z,101143.73
2023-06-07T12:04:52.207Z,101137.05
2023-06-07T12:07:21.721Z,101135.40
2023-06-07T12:09:50.782Z,101134.31
2023-06-07T12:12:19.742Z,101125.44
2023-06-07T12:14:52.698Z,101126.45
2023-06-07T12:17:22.899Z,101127.18
2023-06-07T12:19:51.423Z,101128.48
2023-06-07T12:22:20.075Z,101124.34
2023-06-07T12:24:49.386Z,101125.89
2023-06-07T12:27:17.862Z,101121.20
2023-06-07T12:29:46.553Z,101120.95
2023-06-07T12:32:15.345Z,101122.87
2023-06-07T12:34:45.533Z,101118.98
2023-06-07T12:37:14.769Z,101120.42
2023-06-07T12:39:43.869Z,101111.94
2023-06-07T12:42:12.705Z,101110.60
2023-06-07T12:44:41.358Z,101110.23
2023-06-07T12:47:11.107Z,101104.85
2023-06-07T12:49:39.552Z,101102.71
2023-06-07T12:52:09.536Z,101103.23
2023-06-07T12:54:38.247Z,101101.02
2023-06-07T12:57:07.460Z,101092.41
2023-06-07T12:59:36.340Z,101092.99
2023-06-07T13:02:06.267Z,101088.02
2023-06-07T13:04:34.580Z,101085.95
2023-06-07T13:07:03.339Z,101077.79
2023-06-07T13:09:32.526Z,101068.44
2023-06-07T13:12:04.210Z,101068.59
2023-06-07T13:14:32.769Z,101067.46
2023-06-07T13:17:01.906Z,101065.79
2023-06-07T13:19:30.876Z,101063.89
2023-06-07T13:21:59.340Z,101060.11
2023-06-07T13:25:28.241Z,101058.16
2023-06-07T13:28:40.752Z,101060.27
2023-06-07T13:31:09.442Z,101049.74
2023-06-07T13:37:35.507Z,101048.95
2023-06-07T13:40:04.829Z,101047.39
2023-06-07T13:42:35.276Z,101043.91
2023-06-07T13:45:05.082Z,101042.43
2023-06-07T13:47:34.079Z,101044.20
2023-06-07T13:50:03.657Z,101042.86
2023-06-07T13:52:33.102Z,101043.85
2023-06-07T13:55:01.745Z,101041.80
2023-06-07T13:57:30.529Z,101039.16
2023-06-07T14:00:00.965Z,101032.50
2023-06-07T14:02:30.182Z,101034.66
2023-06-07T14:05:01.891Z,101028.65
2023-06-07T14:07:31.497Z,101029.50
2023-06-07T14:09:59.884Z,101025.58
2023-06-07T14:12:48.398Z,101020.90
2023-06-07T14:15:17.023Z,101023.77
2023-06-07T14:17:45.580Z,101016.36
2023-06-07T14:20:15.648Z,101015.09
2023-06-07T14:22:44.337Z,101022.16
2023-06-07T14:25:13.737Z,101014.08
2023-06-07T14:27:43.773Z,101016.78
2023-06-07T14:30:12.864Z,101020.70
2023-06-07T14:32:41.421Z,101019.52
2023-06-07T14:35:10.389Z,101015.72
2023-06-07T14:37:38.911Z,101014.45
2023-06-07T14:40:08.857Z,101014.34
2023-06-07T14:42:37.644Z,101014.24
2023-06-07T14:45:07.488Z,101011.73
2023-06-07T14:47:36.352Z,101010.60
2023-06-07T14:50:05.578Z,101005.95
2023-06-07T14:52:34.017Z,101009.82
2023-06-07T14:55:02.697Z,101007.89
2023-06-07T14:57:31.291Z,101009.11
2023-06-07T14:59:59.702Z,101007.93
2023-06-07T15:02:28.405Z,101007.35
2023-06-07T15:04:57.378Z,101004.88
2023-06-07T15:07:26.683Z,101010.43
2023-06-07T15:09:55.246Z,101010.05
2023-06-07T15:12:24.048Z,101010.98
2023-06-07T15:14:52.520Z,101006.87
2023-06-07T15:17:21.107Z,101005.96
2023-06-07T15:19:50.145Z,101004.33
2023-06-07T15:22:18.652Z,101005.32
2023-06-07T15:24:46.994Z,101009.66
2023-06-07T15:27:15.744Z,101010.34
2023-06-07T15:29:44.342Z,101005.61
2023-06-07T15:32:13.019Z,101010.55
2023-06-07T15:34:46.317Z,101009.92
2023-06-07T15:37:14.906Z,101011.60
2023-06-07T15:39:47.629Z,101012.02
2023-06-07T15:42:16.177Z,101008.77
2023-06-07T15:44:46.922Z,101009.23
2023-06-07T15:47:17.291Z,101014.11
2023-06-07T15:49:45.754Z,101014.71
2023-06-07T15:52:13.998Z,101012.23
2023-06-07T15:54:42.693Z,101010.84
2023-06-07T15:57:11.375Z,101012.86
2023-06-07T15:59:40.392Z,101009.27
2023-06-07T16:02:09.253Z,101003.95
2023-06-07T16:04:37.692Z,101004.05
2023-06-07T16:07:22.912Z,101004.98
2023-06-07T16:09:51.394Z,101008.74
2023-06-07T16:12:20.056Z,101010.46
2023-06-07T16:14:48.946Z,101009.98
2023-06-07T16:17:17.488Z,101012.20
2023-06-07T16:19:46.453Z,101010.65
2023-06-07T16:22:16.065Z,101011.55
2023-06-07T16:24:46.414Z,101012.30
2023-06-07T16:27:14.878Z,101013.50
2023-06-07T16:29:43.857Z,101012.16
2023-06-07T16:32:12.289Z,101009.98
2023-06-07T16:34:40.767Z,101008.48
2023-06-07T16:37:10.135Z,101009.76
2023-06-07T16:39:39.432Z,101004.30
2023-06-07T16:42:08.061Z,101006.37
2023-06-07T16:44:36.806Z,101007.34
2023-06-07T16:47:05.260Z,101007.78
2023-06-07T16:49:34.799Z,101012.46
2023-06-07T16:52:03.703Z,101014.34
2023-06-07T16:54:32.187Z,101016.42
2023-06-07T16:57:00.765Z,101013.80
2023-06-07T16:59:29.872Z,101011.07
2023-06-07T17:01:58.367Z,101009.64
2023-06-07T17:04:27.132Z,101018.35
2023-06-07T17:06:56.024Z,101016.52
2023-06-07T17:09:24.708Z,101016.67
2023-06-07T17:11:53.037Z,101016.45
2023-06-07T17:14:22.185Z,101015.70
2023-06-07T17:16:51.064Z,101020.23
2023-06-07T17:19:20.295Z,101021.48
2023-06-07T17:21:48.966Z,101023.87
2023-06-07T17:24:20.881Z,101026.36
2023-06-07T17:26:49.833Z,101019.86
2023-06-07T17:29:28.525Z,101019.73
2023-06-07T17:31:58.696Z,101018.73
2023-06-07T17:34:27.673Z,101018.94
2023-06-07T17:36:56.457Z,101020.77
2023-06-07T17:39:25.139Z,101024.08
2023-06-07T17:42:53.337Z,101024.55
2023-06-07T17:45:42.771Z,101025.98
2023-06-07T17:48:11.736Z,101026.59
2023-06-07T17:50:46.645Z,101028.17
2023-06-07T17:53:16.449Z,101031.06
2023-06-07T17:56:44.660Z,101030.13
2023-06-07T17:59:54.013Z,101031.48
2023-06-07T18:02:22.450Z,101035.43
2023-06-07T18:04:51.143Z,101036.38
2023-06-07T18:08:19.522Z,101043.17
2023-06-07T18:10:53.328Z,101043.70
2023-06-07T18:13:31.813Z,101048.05
2023-06-07T18:16:11.279Z,101049.50
2023-06-07T18:18:56.172Z,101050.38
2023-06-07T18:21:36.567Z,101055.83
2023-06-07T18:24:13.482Z,101056.33
2023-06-07T18:26:53.767Z,101058.30
2023-06-07T18:29:34.516Z,101062.46
2023-06-07T18:32:22.332Z,101061.95
2023-06-07T18:35:04.189Z,101061.52
2023-06-07T18:37:39.219Z,101063.02
2023-06-07T18:41:15.063Z,101068.07
2023-06-07T18:43:43.660Z,101069.81
2023-06-07T18:46:12.062Z,101073.95
2023-06-07T18:48:40.820Z,101080.20
2023-06-07T18:51:09.808Z,101083.73
2023-06-07T18:54:37.939Z,101082.39
2023-06-07T18:57:07.557Z,101087.52
2023-06-07T19:00:41.267Z,101088.80
2023-06-07T19:03:37.744Z,101090.41
2023-06-07T19:06:07.712Z,101092.53
2023-06-07T19:09:35.978Z,101095.05
2023-06-07T19:12:27.322Z,101098.06
2023-06-07T19:14:57.908Z,101100.27
2023-06-07T19:17:26.740Z,101101.48
2023-06-07T19:19:57.644Z,101099.11
2023-06-07T19:22:26.679Z,101099.01
2023-06-07T19:24:56.237Z,101097.19
2023-06-07T19:27:24.722Z,101102.54
2023-06-07T19:29:53.404Z,101100.48
2023-06-07T19:32:22.290Z,101100.84
2023-06-07T19:34:51.632Z,101100.17
2023-06-07T19:37:20.820Z,101096.48
2023-06-07T19:39:49.893Z,101098.08
2023-06-07T19:42:20.837Z,101094.13
2023-06-07T19:44:50.308Z,101092.59
2023-06-07T19:47:19.538Z,101096.63
2023-06-07T19:49:48.434Z,101100.60
2023-06-07T19:52:16.686Z,101103.95
2023-06-07T19:54:45.145Z,101102.70
2023-06-07T19:57:13.413Z,101101.24
2023-06-07T19:59:42.369Z,101102.06
2023-06-07T20:02:11.244Z,101101.02
2023-06-07T20:04:41.724Z,101100.23
2023-06-07T20:07:10.484Z,101099.62
2023-06-07T20:09:40.389Z,101098.78
2023-06-07T20:12:09.910Z,101098.90
2023-06-07T20:14:41.158Z,101100.75
2023-06-07T20:17:12.758Z,101101.45
2023-06-07T20:19:41.510Z,101103.99
2023-06-07T20:22:10.484Z,101107.36
2023-06-07T20:24:39.173Z,101110.02
2023-06-07T20:27:08.003Z,101114.73
2023-06-07T20:29:37.675Z,101118.61
2023-06-07T20:32:07.151Z,101120.73
2023-06-07T20:34:36.630Z,101117.34
2023-06-07T20:37:05.809Z,101118.21
2023-06-07T20:39:34.467Z,101121.34
2023-06-07T20:42:04.544Z,101124.77
2023-06-07T20:44:47.838Z,101125.02
2023-06-07T20:47:22.064Z,101126.39
2023-06-07T20:49:52.293Z,101124.79
2023-06-07T20:52:20.829Z,101124.69
2023-06-07T20:54:49.536Z,101122.46
2023-06-07T20:57:18.221Z,101126.64
2023-06-07T20:59:47.636Z,101126.12
2023-06-07T21:02:16.216Z,101128.44
2023-06-07T21:04:45.011Z,101124.73
2023-06-07T21:07:15.629Z,101128.58
2023-06-07T21:09:44.318Z,101125.77
2023-06-07T21:12:13.831Z,101123.70
2023-06-07T21:14:42.396Z,101126.02
2023-06-07T21:17:11.560Z,101126.91
2023-06-07T21:19:39.988Z,101125.44
2023-06-07T21:22:08.419Z,101124.66
2023-06-07T21:24:37.161Z,101124.14
2023-06-07T21:27:06.923Z,101127.26
2023-06-07T21:29:35.204Z,101126.18
2023-06-07T21:32:04.559Z,101123.75
2023-06-07T21:34:33.238Z,101123.64
2023-06-07T21:37:02.029Z,101122.00
2023-06-07T21:39:30.818Z,101120.69
2023-06-07T21:41:59.204Z,101122.86
2023-06-07T21:44:27.578Z,101117.58
2023-06-07T21:46:56.267Z,101115.56
2023-06-07T21:49:24.867Z,101112.92
2023-06-07T21:51:53.645Z,101109.70
2023-06-07T21:54:22.124Z,101112.08
2023-06-07T21:56:50.722Z,101107.96
2023-06-07T21:59:19.401Z,101107.96
2023-06-07T22:01:48.164Z,101110.82
2023-06-07T22:04:17.415Z,101109.50
2023-06-07T22:06:46.174Z,101107.36
2023-06-07T22:09:14.962Z,101103.27
2023-06-07T22:11:45.696Z,101103.73
2023-06-07T22:14:14.911Z,101103.31
2023-06-07T22:16:48.133Z,101099.05
2023-06-07T22:19:20.294Z,101101.63
2023-06-07T22:21:51.924Z,101104.09
2023-06-07T22:24:20.805Z,101103.14
2023-06-07T22:26:50.307Z,101105.84
2023-06-07T22:29:18.961Z,101106.28
2023-06-07T22:31:47.637Z,101104.70
2023-06-07T22:34:19.662Z,101103.07
2023-06-07T22:36:48.649Z,101098.60
2023-06-07T22:39:17.128Z,101099.00
2023-06-07T22:41:46.233Z,101095.40
2023-06-07T22:44:14.919Z,101093.66
2023-06-07T22:46:43.329Z,101089.31
2023-06-07T22:49:12.995Z,101086.20
2023-06-07T22:51:42.649Z,101087.34
2023-06-07T22:54:11.224Z,101088.41
2023-06-07T22:56:39.984Z,101089.19
2023-06-07T22:59:08.482Z,101087.19
2023-06-07T23:01:36.919Z,101086.98
2023-06-07T23:04:05.617Z,101085.53
2023-06-07T23:06:38.743Z,101084.56
2023-06-07T23:09:07.460Z,101086.29
2023-06-07T23:11:36.329Z,101083.66
2023-06-07T23:14:04.797Z,101083.52
2023-06-07T23:16:34.211Z,101081.61
2023-06-07T23:19:05.036Z,101088.45
2023-06-07T23:21:33.933Z,101088.33
2023-06-07T23:24:02.728Z,101088.09
2023-06-07T23:26:31.212Z,101081.54
2023-06-07T23:28:59.890Z,101085.77
2023-06-07T23:31:29.234Z,101080.96
2023-06-07T23:33:57.978Z,101082.53
2023-06-07T23:36:28.752Z,101075.97
2023-06-07T23:38:59.556Z,101073.95
2023-06-07T23:41:28.443Z,101074.44
2023-06-07T23:43:56.871Z,101075.02
2023-06-07T23:46:26.443Z,101073.27
2023-06-07T23:48:54.911Z,101073.30
2023-06-07T23:51:23.506Z,101073.16
2023-06-07T23:53:51.959Z,101074.60
2023-06-07T23:56:20.372Z,101075.21
2023-06-07T23:58:48.886Z,101074.09
